sensor_id;sensor_type;location;lat;lon;timestamp;P1;durP1;ratioP1;P2;durP2;ratioP2
26484;SDS011;18083;50.560;7.262;2024-02-14T00:00:22;3.03;;;2.40;;
26484;SDS011;18083;50.560;7.262;2024-02-14T00:02:51;7.30;;;3.47;;
26484;SDS011;18083;50.560;7.262;2024-02-14T00:05:18;4.50;;;2.90;;
26484;SDS011;18083;50.560;7.262;2024-02-14T00:07:45;4.53;;;2.03;;
26484;SDS011;18083;50.560;7.262;2024-02-14T00:10:13;8.27;;;3.77;;
26484;SDS011;18083;50.560;7.262;2024-02-14T00:12:40;4.47;;;3.20;;
26484;SDS011;18083;50.560;7.262;2024-02-14T00:15:07;4.53;;;2.40;;
26484;SDS011;18083;50.560;7.262;2024-02-14T00:17:35;3.53;;;2.57;;
26484;SDS011;18083;50.560;7.262;2024-02-14T00:20:03;4.53;;;2.20;;
26484;SDS011;18083;50.560;7.262;2024-02-14T00:22:30;5.33;;;2.40;;
26484;SDS011;18083;50.560;7.262;2024-02-14T00:24:58;1.97;;;1.60;;
26484;SDS011;18083;50.560;7.262;2024-02-14T00:27:25;6.17;;;2.23;;
26484;SDS011;18083;50.560;7.262;2024-02-14T00:29:53;2.93;;;2.00;;
26484;SDS011;18083;50.560;7.262;2024-02-14T00:32:20;5.90;;;1.80;;
26484;SDS011;18083;50.560;7.262;2024-02-14T00:34:47;3.40;;;1.73;;
26484;SDS011;18083;50.560;7.262;2024-02-14T00:37:16;4.27;;;1.60;;
26484;SDS011;18083;50.560;7.262;2024-02-14T00:39:43;3.37;;;2.43;;
26484;SDS011;18083;50.560;7.262;2024-02-14T00:42:10;4.57;;;1.87;;
26484;SDS011;18083;50.560;7.262;2024-02-14T00:44:38;2.57;;;1.50;;
26484;SDS011;18083;50.560;7.262;2024-02-14T00:47:05;2.87;;;1.50;;
26484;SDS011;18083;50.560;7.262;2024-02-14T00:49:35;3.10;;;2.00;;
26484;SDS011;18083;50.560;7.262;2024-02-14T00:52:03;3.57;;;1.80;;
26484;SDS011;18083;50.560;7.262;2024-02-14T00:54:31;4.97;;;1.83;;
26484;SDS011;18083;50.560;7.262;2024-02-14T00:56:58;2.63;;;1.90;;
26484;SDS011;18083;50.560;7.262;2024-02-14T00:59:25;2.10;;;1.40;;
26484;SDS011;18083;50.560;7.262;2024-02-14T01:01:52;2.03;;;1.73;;
26484;SDS011;18083;50.560;7.262;2024-02-14T01:04:20;2.43;;;1.23;;
26484;SDS011;18083;50.560;7.262;2024-02-14T01:06:47;1.67;;;1.40;;
26484;SDS011;18083;50.560;7.262;2024-02-14T01:09:15;7.73;;;1.63;;
26484;SDS011;18083;50.560;7.262;2024-02-14T01:11:43;1.90;;;1.47;;
26484;SDS011;18083;50.560;7.262;2024-02-14T01:14:11;2.37;;;1.20;;
26484;SDS011;18083;50.560;7.262;2024-02-14T01:16:43;2.30;;;1.40;;
26484;SDS011;18083;50.560;7.262;2024-02-14T01:19:11;2.23;;;1.60;;
26484;SDS011;18083;50.560;7.262;2024-02-14T01:21:39;2.57;;;1.47;;
26484;SDS011;18083;50.560;7.262;2024-02-14T01:24:06;3.37;;;1.53;;
26484;SDS011;18083;50.560;7.262;2024-02-14T01:26:35;4.93;;;1.60;;
26484;SDS011;18083;50.560;7.262;2024-02-14T01:29:02;2.20;;;1.60;;
26484;SDS011;18083;50.560;7.262;2024-02-14T01:31:29;1.73;;;1.40;;
26484;SDS011;18083;50.560;7.262;2024-02-14T01:33:57;4.53;;;1.67;;
26484;SDS011;18083;50.560;7.262;2024-02-14T01:36:26;5.53;;;1.80;;
26484;SDS011;18083;50.560;7.262;2024-02-14T01:38:53;1.93;;;1.47;;
26484;SDS011;18083;50.560;7.262;2024-02-14T01:41:21;3.17;;;1.63;;
26484;SDS011;18083;50.560;7.262;2024-02-14T01:43:49;1.40;;;1.30;;
26484;SDS011;18083;50.560;7.262;2024-02-14T01:46:16;2.60;;;1.47;;
26484;SDS011;18083;50.560;7.262;2024-02-14T01:48:44;1.30;;;1.20;;
26484;SDS011;18083;50.560;7.262;2024-02-14T01:51:12;1.93;;;1.43;;
26484;SDS011;18083;50.560;7.262;2024-02-14T01:53:48;4.17;;;1.90;;
26484;SDS011;18083;50.560;7.262;2024-02-14T01:56:16;7.10;;;2.43;;
26484;SDS011;18083;50.560;7.262;2024-02-14T01:58:43;3.90;;;1.60;;
26484;SDS011;18083;50.560;7.262;2024-02-14T02:01:11;3.37;;;2.23;;
26484;SDS011;18083;50.560;7.262;2024-02-14T02:03:38;5.13;;;2.13;;
26484;SDS011;18083;50.560;7.262;2024-02-14T02:06:26;2.23;;;1.97;;
26484;SDS011;18083;50.560;7.262;2024-02-14T02:08:54;3.53;;;2.03;;
26484;SDS011;18083;50.560;7.262;2024-02-14T02:11:23;5.27;;;1.90;;
26484;SDS011;18083;50.560;7.262;2024-02-14T02:13:51;3.90;;;1.57;;
26484;SDS011;18083;50.560;7.262;2024-02-14T02:16:18;1.93;;;1.70;;
26484;SDS011;18083;50.560;7.262;2024-02-14T02:18:46;5.30;;;1.50;;
26484;SDS011;18083;50.560;7.262;2024-02-14T02:21:14;3.40;;;1.57;;
26484;SDS011;18083;50.560;7.262;2024-02-14T02:23:43;2.50;;;1.83;;
26484;SDS011;18083;50.560;7.262;2024-02-14T02:26:11;2.10;;;1.50;;
26484;SDS011;18083;50.560;7.262;2024-02-14T02:28:39;7.50;;;1.80;;
26484;SDS011;18083;50.560;7.262;2024-02-14T02:31:07;3.13;;;1.87;;
26484;SDS011;18083;50.560;7.262;2024-02-14T02:33:35;2.87;;;1.40;;
26484;SDS011;18083;50.560;7.262;2024-02-14T02:36:03;4.73;;;2.33;;
26484;SDS011;18083;50.560;7.262;2024-02-14T02:38:30;8.57;;;2.50;;
26484;SDS011;18083;50.560;7.262;2024-02-14T02:40:57;4.00;;;1.63;;
26484;SDS011;18083;50.560;7.262;2024-02-14T02:43:24;5.33;;;1.67;;
26484;SDS011;18083;50.560;7.262;2024-02-14T02:45:52;4.60;;;1.70;;
26484;SDS011;18083;50.560;7.262;2024-02-14T02:48:19;4.60;;;1.97;;
26484;SDS011;18083;50.560;7.262;2024-02-14T02:50:49;2.47;;;1.63;;
26484;SDS011;18083;50.560;7.262;2024-02-14T02:53:17;3.63;;;1.83;;
26484;SDS011;18083;50.560;7.262;2024-02-14T02:55:44;3.47;;;1.87;;
26484;SDS011;18083;50.560;7.262;2024-02-14T02:58:11;4.03;;;1.57;;
26484;SDS011;18083;50.560;7.262;2024-02-14T03:00:40;5.90;;;1.87;;
26484;SDS011;18083;50.560;7.262;2024-02-14T03:03:07;3.03;;;1.87;;
26484;SDS011;18083;50.560;7.262;2024-02-14T03:05:35;8.77;;;1.80;;
26484;SDS011;18083;50.560;7.262;2024-02-14T03:08:02;2.77;;;1.70;;
26484;SDS011;18083;50.560;7.262;2024-02-14T03:13:17;6.30;;;1.77;;
26484;SDS011;18083;50.560;7.262;2024-02-14T03:15:44;3.73;;;1.67;;
26484;SDS011;18083;50.560;7.262;2024-02-14T03:18:12;4.33;;;1.77;;
26484;SDS011;18083;50.560;7.262;2024-02-14T03:20:40;3.13;;;2.00;;
26484;SDS011;18083;50.560;7.262;2024-02-14T03:23:07;5.37;;;1.90;;
26484;SDS011;18083;50.560;7.262;2024-02-14T03:25:34;3.57;;;2.23;;
26484;SDS011;18083;50.560;7.262;2024-02-14T03:28:03;4.13;;;1.87;;
26484;SDS011;18083;50.560;7.262;2024-02-14T03:30:32;1.83;;;1.60;;
26484;SDS011;18083;50.560;7.262;2024-02-14T03:33:00;3.77;;;1.60;;
26484;SDS011;18083;50.560;7.262;2024-02-14T03:35:27;4.87;;;1.90;;
26484;SDS011;18083;50.560;7.262;2024-02-14T03:37:54;4.33;;;2.23;;
26484;SDS011;18083;50.560;7.262;2024-02-14T03:40:22;4.07;;;1.70;;
26484;SDS011;18083;50.560;7.262;2024-02-14T03:42:50;5.97;;;2.83;;
26484;SDS011;18083;50.560;7.262;2024-02-14T03:45:18;4.63;;;2.13;;
26484;SDS011;18083;50.560;7.262;2024-02-14T03:47:45;3.10;;;2.33;;
26484;SDS011;18083;50.560;7.262;2024-02-14T03:50:12;5.43;;;2.00;;
26484;SDS011;18083;50.560;7.262;2024-02-14T03:52:40;6.60;;;2.80;;
26484;SDS011;18083;50.560;7.262;2024-02-14T03:55:08;3.50;;;2.20;;
26484;SDS011;18083;50.560;7.262;2024-02-14T03:57:37;2.53;;;2.27;;
26484;SDS011;18083;50.560;7.262;2024-02-14T04:00:05;5.43;;;2.20;;
26484;SDS011;18083;50.560;7.262;2024-02-14T04:02:36;2.43;;;1.70;;
26484;SDS011;18083;50.560;7.262;2024-02-14T04:05:04;3.90;;;2.00;;
26484;SDS011;18083;50.560;7.262;2024-02-14T04:07:33;2.73;;;1.80;;
26484;SDS011;18083;50.560;7.262;2024-02-14T04:10:04;2.07;;;1.77;;
26484;SDS011;18083;50.560;7.262;2024-02-14T04:12:31;2.77;;;1.60;;
26484;SDS011;18083;50.560;7.262;2024-02-14T04:14:59;3.07;;;2.10;;
26484;SDS011;18083;50.560;7.262;2024-02-14T04:17:26;4.20;;;2.00;;
26484;SDS011;18083;50.560;7.262;2024-02-14T04:19:53;2.97;;;1.40;;
26484;SDS011;18083;50.560;7.262;2024-02-14T04:22:21;3.10;;;1.53;;
26484;SDS011;18083;50.560;7.262;2024-02-14T04:24:48;5.07;;;1.97;;
26484;SDS011;18083;50.560;7.262;2024-02-14T04:27:15;3.23;;;1.50;;
26484;SDS011;18083;50.560;7.262;2024-02-14T04:29:46;6.30;;;1.60;;
26484;SDS011;18083;50.560;7.262;2024-02-14T04:32:14;2.73;;;1.63;;
26484;SDS011;18083;50.560;7.262;2024-02-14T04:34:41;2.57;;;1.30;;
26484;SDS011;18083;50.560;7.262;2024-02-14T04:37:09;6.97;;;2.00;;
26484;SDS011;18083;50.560;7.262;2024-02-14T04:39:38;8.50;;;2.23;;
26484;SDS011;18083;50.560;7.262;2024-02-14T04:42:06;5.23;;;1.97;;
26484;SDS011;18083;50.560;7.262;2024-02-14T04:44:34;3.73;;;1.93;;
26484;SDS011;18083;50.560;7.262;2024-02-14T04:47:01;3.70;;;1.60;;
26484;SDS011;18083;50.560;7.262;2024-02-14T04:49:28;3.90;;;2.30;;
26484;SDS011;18083;50.560;7.262;2024-02-14T04:51:56;1.77;;;1.67;;
26484;SDS011;18083;50.560;7.262;2024-02-14T04:54:23;3.80;;;1.57;;
26484;SDS011;18083;50.560;7.262;2024-02-14T04:56:52;2.83;;;1.67;;
26484;SDS011;18083;50.560;7.262;2024-02-14T04:59:19;2.63;;;1.60;;
26484;SDS011;18083;50.560;7.262;2024-02-14T05:04:33;7.33;;;2.30;;
26484;SDS011;18083;50.560;7.262;2024-02-14T05:07:02;3.40;;;2.40;;
26484;SDS011;18083;50.560;7.262;2024-02-14T05:09:29;2.23;;;1.80;;
26484;SDS011;18083;50.560;7.262;2024-02-14T05:11:57;3.87;;;3.10;;
26484;SDS011;18083;50.560;7.262;2024-02-14T05:14:25;3.37;;;2.13;;
26484;SDS011;18083;50.560;7.262;2024-02-14T05:16:54;3.20;;;2.00;;
26484;SDS011;18083;50.560;7.262;2024-02-14T05:19:22;1.80;;;1.60;;
26484;SDS011;18083;50.560;7.262;2024-02-14T05:21:49;4.10;;;1.83;;
26484;SDS011;18083;50.560;7.262;2024-02-14T05:24:16;3.87;;;2.00;;
26484;SDS011;18083;50.560;7.262;2024-02-14T05:26:44;3.03;;;1.90;;
26484;SDS011;18083;50.560;7.262;2024-02-14T05:29:11;2.10;;;1.73;;
26484;SDS011;18083;50.560;7.262;2024-02-14T05:31:45;2.37;;;1.90;;
26484;SDS011;18083;50.560;7.262;2024-02-14T05:34:12;3.57;;;1.90;;
26484;SDS011;18083;50.560;7.262;2024-02-14T05:36:40;3.13;;;2.43;;
26484;SDS011;18083;50.560;7.262;2024-02-14T05:39:08;2.67;;;1.53;;
26484;SDS011;18083;50.560;7.262;2024-02-14T05:41:36;2.20;;;1.53;;
26484;SDS011;18083;50.560;7.262;2024-02-14T05:44:03;3.27;;;2.10;;
26484;SDS011;18083;50.560;7.262;2024-02-14T05:46:30;3.03;;;2.00;;
26484;SDS011;18083;50.560;7.262;2024-02-14T05:48:58;3.63;;;2.40;;
26484;SDS011;18083;50.560;7.262;2024-02-14T05:51:25;3.53;;;2.17;;
26484;SDS011;18083;50.560;7.262;2024-02-14T05:53:52;3.97;;;2.30;;
26484;SDS011;18083;50.560;7.262;2024-02-14T05:56:20;4.53;;;1.93;;
26484;SDS011;18083;50.560;7.262;2024-02-14T05:58:47;2.47;;;1.80;;
26484;SDS011;18083;50.560;7.262;2024-02-14T06:01:14;3.23;;;1.93;;
26484;SDS011;18083;50.560;7.262;2024-02-14T06:03:41;3.50;;;2.10;;
26484;SDS011;18083;50.560;7.262;2024-02-14T06:06:11;4.90;;;2.23;;
26484;SDS011;18083;50.560;7.262;2024-02-14T06:08:39;2.27;;;2.03;;
26484;SDS011;18083;50.560;7.262;2024-02-14T06:11:06;5.13;;;2.73;;
26484;SDS011;18083;50.560;7.262;2024-02-14T06:13:33;4.77;;;2.27;;
26484;SDS011;18083;50.560;7.262;2024-02-14T06:16:03;5.47;;;3.00;;
26484;SDS011;18083;50.560;7.262;2024-02-14T06:18:30;7.43;;;2.73;;
26484;SDS011;18083;50.560;7.262;2024-02-14T06:20:57;5.97;;;2.50;;
26484;SDS011;18083;50.560;7.262;2024-02-14T06:23:25;2.80;;;2.50;;
26484;SDS011;18083;50.560;7.262;2024-02-14T06:25:52;2.97;;;1.97;;
26484;SDS011;18083;50.560;7.262;2024-02-14T06:28:20;8.03;;;2.90;;
26484;SDS011;18083;50.560;7.262;2024-02-14T06:30:47;3.83;;;2.40;;
26484;SDS011;18083;50.560;7.262;2024-02-14T06:33:14;5.43;;;2.60;;
26484;SDS011;18083;50.560;7.262;2024-02-14T06:35:42;5.37;;;2.57;;
26484;SDS011;18083;50.560;7.262;2024-02-14T06:38:09;5.40;;;2.83;;
26484;SDS011;18083;50.560;7.262;2024-02-14T06:40:36;7.10;;;2.93;;
26484;SDS011;18083;50.560;7.262;2024-02-14T06:43:04;10.13;;;2.93;;
26484;SDS011;18083;50.560;7.262;2024-02-14T06:45:32;10.73;;;3.97;;
26484;SDS011;18083;50.560;7.262;2024-02-14T06:48:00;5.10;;;3.30;;
26484;SDS011;18083;50.560;7.262;2024-02-14T06:50:27;9.07;;;3.40;;
26484;SDS011;18083;50.560;7.262;2024-02-14T06:52:55;7.23;;;3.70;;
26484;SDS011;18083;50.560;7.262;2024-02-14T06:55:24;8.60;;;3.40;;
26484;SDS011;18083;50.560;7.262;2024-02-14T06:57:52;4.87;;;3.50;;
26484;SDS011;18083;50.560;7.262;2024-02-14T07:00:21;8.50;;;2.80;;
26484;SDS011;18083;50.560;7.262;2024-02-14T07:02:48;4.83;;;3.57;;
26484;SDS011;18083;50.560;7.262;2024-02-14T07:05:16;12.93;;;3.43;;
26484;SDS011;18083;50.560;7.262;2024-02-14T07:07:43;7.93;;;3.33;;
26484;SDS011;18083;50.560;7.262;2024-02-14T07:10:10;4.80;;;3.50;;
26484;SDS011;18083;50.560;7.262;2024-02-14T07:12:38;4.97;;;2.93;;
26484;SDS011;18083;50.560;7.262;2024-02-14T07:15:05;13.33;;;2.87;;
26484;SDS011;18083;50.560;7.262;2024-02-14T07:17:34;5.13;;;2.40;;
26484;SDS011;18083;50.560;7.262;2024-02-14T07:20:01;6.40;;;3.20;;
26484;SDS011;18083;50.560;7.262;2024-02-14T07:22:29;5.83;;;3.17;;
26484;SDS011;18083;50.560;7.262;2024-02-14T07:25:00;5.97;;;3.10;;
26484;SDS011;18083;50.560;7.262;2024-02-14T07:27:27;4.53;;;2.40;;
26484;SDS011;18083;50.560;7.262;2024-02-14T07:29:55;5.43;;;2.77;;
26484;SDS011;18083;50.560;7.262;2024-02-14T07:32:22;7.47;;;3.27;;
26484;SDS011;18083;50.560;7.262;2024-02-14T07:34:49;4.13;;;3.13;;
26484;SDS011;18083;50.560;7.262;2024-02-14T07:37:17;4.17;;;2.80;;
26484;SDS011;18083;50.560;7.262;2024-02-14T07:39:46;9.13;;;3.70;;
26484;SDS011;18083;50.560;7.262;2024-02-14T07:42:14;5.40;;;2.70;;
26484;SDS011;18083;50.560;7.262;2024-02-14T07:44:41;3.63;;;2.80;;
26484;SDS011;18083;50.560;7.262;2024-02-14T07:47:09;3.67;;;3.20;;
26484;SDS011;18083;50.560;7.262;2024-02-14T07:49:36;5.03;;;3.40;;
26484;SDS011;18083;50.560;7.262;2024-02-14T07:52:03;8.47;;;3.73;;
26484;SDS011;18083;50.560;7.262;2024-02-14T07:54:31;3.47;;;2.80;;
26484;SDS011;18083;50.560;7.262;2024-02-14T07:56:58;7.13;;;3.80;;
26484;SDS011;18083;50.560;7.262;2024-02-14T07:59:25;3.50;;;2.63;;
26484;SDS011;18083;50.560;7.262;2024-02-14T08:01:53;4.20;;;2.50;;
26484;SDS011;18083;50.560;7.262;2024-02-14T08:04:21;4.47;;;2.20;;
26484;SDS011;18083;50.560;7.262;2024-02-14T08:06:48;6.27;;;1.97;;
26484;SDS011;18083;50.560;7.262;2024-02-14T08:09:18;4.57;;;2.60;;
26484;SDS011;18083;50.560;7.262;2024-02-14T08:11:46;3.23;;;1.80;;
26484;SDS011;18083;50.560;7.262;2024-02-14T08:14:13;3.27;;;2.17;;
26484;SDS011;18083;50.560;7.262;2024-02-14T08:16:41;2.70;;;2.07;;
26484;SDS011;18083;50.560;7.262;2024-02-14T08:19:08;3.30;;;1.87;;
26484;SDS011;18083;50.560;7.262;2024-02-14T08:21:35;4.63;;;2.57;;
26484;SDS011;18083;50.560;7.262;2024-02-14T08:24:03;5.47;;;3.00;;
26484;SDS011;18083;50.560;7.262;2024-02-14T08:26:31;3.10;;;2.50;;
26484;SDS011;18083;50.560;7.262;2024-02-14T08:28:58;4.80;;;2.20;;
26484;SDS011;18083;50.560;7.262;2024-02-14T08:31:26;4.10;;;2.63;;
26484;SDS011;18083;50.560;7.262;2024-02-14T08:33:53;5.53;;;2.20;;
26484;SDS011;18083;50.560;7.262;2024-02-14T08:36:21;3.07;;;2.00;;
26484;SDS011;18083;50.560;7.262;2024-02-14T08:38:48;3.47;;;1.97;;
26484;SDS011;18083;50.560;7.262;2024-02-14T08:41:16;2.97;;;2.43;;
26484;SDS011;18083;50.560;7.262;2024-02-14T08:43:44;4.27;;;2.60;;
26484;SDS011;18083;50.560;7.262;2024-02-14T08:46:12;4.03;;;2.30;;
26484;SDS011;18083;50.560;7.262;2024-02-14T08:48:39;5.73;;;2.10;;
26484;SDS011;18083;50.560;7.262;2024-02-14T08:51:11;2.93;;;2.27;;
26484;SDS011;18083;50.560;7.262;2024-02-14T08:53:39;2.83;;;2.63;;
26484;SDS011;18083;50.560;7.262;2024-02-14T08:56:08;2.60;;;2.03;;
26484;SDS011;18083;50.560;7.262;2024-02-14T08:58:35;5.27;;;2.20;;
26484;SDS011;18083;50.560;7.262;2024-02-14T09:01:03;2.20;;;2.00;;
26484;SDS011;18083;50.560;7.262;2024-02-14T09:03:30;3.70;;;2.20;;
26484;SDS011;18083;50.560;7.262;2024-02-14T09:05:57;2.23;;;1.63;;
26484;SDS011;18083;50.560;7.262;2024-02-14T09:08:25;1.50;;;1.37;;
26484;SDS011;18083;50.560;7.262;2024-02-14T09:10:52;4.47;;;1.93;;
26484;SDS011;18083;50.560;7.262;2024-02-14T09:13:19;3.40;;;1.83;;
26484;SDS011;18083;50.560;7.262;2024-02-14T09:15:47;4.30;;;2.60;;
26484;SDS011;18083;50.560;7.262;2024-02-14T09:18:16;4.83;;;2.97;;
26484;SDS011;18083;50.560;7.262;2024-02-14T09:20:45;3.72;;;2.52;;
26484;SDS011;18083;50.560;7.262;2024-02-14T09:23:12;4.93;;;2.60;;
26484;SDS011;18083;50.560;7.262;2024-02-14T09:25:44;5.90;;;2.50;;
26484;SDS011;18083;50.560;7.262;2024-02-14T09:28:13;3.08;;;2.35;;
26484;SDS011;18083;50.560;7.262;2024-02-14T09:30:40;3.17;;;1.70;;
26484;SDS011;18083;50.560;7.262;2024-02-14T09:33:08;4.63;;;2.30;;
26484;SDS011;18083;50.560;7.262;2024-02-14T09:35:35;4.92;;;2.75;;
26484;SDS011;18083;50.560;7.262;2024-02-14T09:38:04;7.08;;;2.20;;
26484;SDS011;18083;50.560;7.262;2024-02-14T09:40:32;2.47;;;2.15;;
26484;SDS011;18083;50.560;7.262;2024-02-14T09:43:00;3.87;;;2.47;;
26484;SDS011;18083;50.560;7.262;2024-02-14T09:45:30;4.03;;;1.50;;
26484;SDS011;18083;50.560;7.262;2024-02-14T09:47:59;2.95;;;1.92;;
26484;SDS011;18083;50.560;7.262;2024-02-14T09:50:27;4.62;;;2.12;;
26484;SDS011;18083;50.560;7.262;2024-02-14T09:52:55;1.22;;;1.12;;
26484;SDS011;18083;50.560;7.262;2024-02-14T09:55:23;1.40;;;1.30;;
26484;SDS011;18083;50.560;7.262;2024-02-14T09:57:52;2.02;;;1.20;;
26484;SDS011;18083;50.560;7.262;2024-02-14T10:00:19;1.85;;;1.20;;
26484;SDS011;18083;50.560;7.262;2024-02-14T10:02:47;3.12;;;1.17;;
26484;SDS011;18083;50.560;7.262;2024-02-14T10:05:15;4.37;;;0.90;;
26484;SDS011;18083;50.560;7.262;2024-02-14T10:07:42;2.35;;;1.60;;
26484;SDS011;18083;50.560;7.262;2024-02-14T10:10:11;3.58;;;1.00;;
26484;SDS011;18083;50.560;7.262;2024-02-14T10:12:38;2.00;;;1.12;;
26484;SDS011;18083;50.560;7.262;2024-02-14T10:15:07;1.75;;;0.90;;
26484;SDS011;18083;50.560;7.262;2024-02-14T10:17:34;3.80;;;1.30;;
26484;SDS011;18083;50.560;7.262;2024-02-14T10:20:02;1.72;;;1.10;;
26484;SDS011;18083;50.560;7.262;2024-02-14T10:22:34;1.62;;;0.90;;
26484;SDS011;18083;50.560;7.262;2024-02-14T10:25:02;1.00;;;0.90;;
26484;SDS011;18083;50.560;7.262;2024-02-14T10:27:30;2.58;;;0.90;;
26484;SDS011;18083;50.560;7.262;2024-02-14T10:30:00;1.05;;;0.95;;
26484;SDS011;18083;50.560;7.262;2024-02-14T10:32:28;1.22;;;0.80;;
26484;SDS011;18083;50.560;7.262;2024-02-14T10:34:55;0.72;;;0.70;;
26484;SDS011;18083;50.560;7.262;2024-02-14T10:37:23;1.32;;;0.70;;
26484;SDS011;18083;50.560;7.262;2024-02-14T10:40:11;0.65;;;0.50;;
26484;SDS011;18083;50.560;7.262;2024-02-14T10:42:38;0.55;;;0.50;;
26484;SDS011;18083;50.560;7.262;2024-02-14T10:45:06;1.87;;;1.22;;
26484;SDS011;18083;50.560;7.262;2024-02-14T10:47:36;3.15;;;0.90;;
26484;SDS011;18083;50.560;7.262;2024-02-14T10:50:06;0.68;;;0.57;;
26484;SDS011;18083;50.560;7.262;2024-02-14T10:52:36;2.72;;;0.80;;
26484;SDS011;18083;50.560;7.262;2024-02-14T10:55:03;1.17;;;0.78;;
26484;SDS011;18083;50.560;7.262;2024-02-14T10:57:33;1.10;;;0.90;;
26484;SDS011;18083;50.560;7.262;2024-02-14T11:00:06;1.30;;;0.85;;
26484;SDS011;18083;50.560;7.262;2024-02-14T11:02:29;2.30;;;1.00;;
26484;SDS011;18083;50.560;7.262;2024-02-14T11:04:58;2.08;;;1.20;;
26484;SDS011;18083;50.560;7.262;2024-02-14T11:07:29;2.85;;;1.27;;
26484;SDS011;18083;50.560;7.262;2024-02-14T11:10:04;2.12;;;1.02;;
26484;SDS011;18083;50.560;7.262;2024-02-14T11:12:34;3.37;;;1.60;;
26484;SDS011;18083;50.560;7.262;2024-02-14T11:17:46;3.47;;;1.85;;
26484;SDS011;18083;50.560;7.262;2024-02-14T11:20:21;4.60;;;1.32;;
26484;SDS011;18083;50.560;7.262;2024-02-14T11:22:54;1.52;;;0.80;;
26484;SDS011;18083;50.560;7.262;2024-02-14T11:25:23;21.35;;;10.15;;
26484;SDS011;18083;50.560;7.262;2024-02-14T11:27:51;1.27;;;1.07;;
26484;SDS011;18083;50.560;7.262;2024-02-14T11:30:35;2.72;;;2.22;;
26484;SDS011;18083;50.560;7.262;2024-02-14T11:33:09;1.27;;;1.10;;
26484;SDS011;18083;50.560;7.262;2024-02-14T11:35:38;16.35;;;8.60;;
26484;SDS011;18083;50.560;7.262;2024-02-14T11:38:05;49.13;;;27.82;;
26484;SDS011;18083;50.560;7.262;2024-02-14T11:40:33;32.23;;;17.83;;
26484;SDS011;18083;50.560;7.262;2024-02-14T11:43:00;21.05;;;11.03;;
26484;SDS011;18083;50.560;7.262;2024-02-14T11:45:28;13.08;;;7.70;;
26484;SDS011;18083;50.560;7.262;2024-02-14T11:47:56;6.45;;;4.37;;
26484;SDS011;18083;50.560;7.262;2024-02-14T11:50:23;3.12;;;1.80;;
26484;SDS011;18083;50.560;7.262;2024-02-14T11:52:51;3.52;;;1.62;;
26484;SDS011;18083;50.560;7.262;2024-02-14T11:55:19;1.47;;;1.30;;
26484;SDS011;18083;50.560;7.262;2024-02-14T11:57:48;5.10;;;1.40;;
26484;SDS011;18083;50.560;7.262;2024-02-14T12:00:17;1.98;;;1.07;;
26484;SDS011;18083;50.560;7.262;2024-02-14T12:02:44;1.62;;;0.75;;
26484;SDS011;18083;50.560;7.262;2024-02-14T12:05:12;1.70;;;0.90;;
26484;SDS011;18083;50.560;7.262;2024-02-14T12:07:40;3.30;;;2.00;;
26484;SDS011;18083;50.560;7.262;2024-02-14T12:10:09;2.98;;;1.42;;
26484;SDS011;18083;50.560;7.262;2024-02-14T12:12:38;2.40;;;1.42;;
26484;SDS011;18083;50.560;7.262;2024-02-14T12:15:05;2.95;;;1.20;;
26484;SDS011;18083;50.560;7.262;2024-02-14T12:17:34;2.33;;;1.43;;
26484;SDS011;18083;50.560;7.262;2024-02-14T12:20:10;2.25;;;1.55;;
26484;SDS011;18083;50.560;7.262;2024-02-14T12:22:40;3.70;;;1.82;;
26484;SDS011;18083;50.560;7.262;2024-02-14T12:25:07;2.60;;;1.62;;
26484;SDS011;18083;50.560;7.262;2024-02-14T12:27:37;4.80;;;1.82;;
26484;SDS011;18083;50.560;7.262;2024-02-14T12:30:08;2.30;;;1.70;;
26484;SDS011;18083;50.560;7.262;2024-02-14T12:32:36;1.50;;;1.40;;
26484;SDS011;18083;50.560;7.262;2024-02-14T12:35:03;3.55;;;1.50;;
26484;SDS011;18083;50.560;7.262;2024-02-14T12:37:32;2.50;;;1.50;;
26484;SDS011;18083;50.560;7.262;2024-02-14T12:39:59;2.67;;;1.72;;
26484;SDS011;18083;50.560;7.262;2024-02-14T12:42:28;6.33;;;1.22;;
26484;SDS011;18083;50.560;7.262;2024-02-14T12:44:55;1.12;;;0.93;;
26484;SDS011;18083;50.560;7.262;2024-02-14T12:47:22;1.42;;;1.10;;
26484;SDS011;18083;50.560;7.262;2024-02-14T12:49:51;0.80;;;0.75;;
26484;SDS011;18083;50.560;7.262;2024-02-14T12:52:19;4.15;;;1.10;;
26484;SDS011;18083;50.560;7.262;2024-02-14T12:54:46;3.72;;;1.00;;
26484;SDS011;18083;50.560;7.262;2024-02-14T12:57:14;3.00;;;1.40;;
26484;SDS011;18083;50.560;7.262;2024-02-14T12:59:41;2.15;;;1.00;;
26484;SDS011;18083;50.560;7.262;2024-02-14T13:02:08;1.95;;;0.95;;
26484;SDS011;18083;50.560;7.262;2024-02-14T13:04:35;1.12;;;1.05;;
26484;SDS011;18083;50.560;7.262;2024-02-14T13:07:03;1.00;;;0.90;;
26484;SDS011;18083;50.560;7.262;2024-02-14T13:09:30;1.00;;;0.60;;
26484;SDS011;18083;50.560;7.262;2024-02-14T13:11:57;1.98;;;0.80;;
26484;SDS011;18083;50.560;7.262;2024-02-14T13:14:25;0.93;;;0.70;;
26484;SDS011;18083;50.560;7.262;2024-02-14T13:16:53;1.50;;;0.80;;
26484;SDS011;18083;50.560;7.262;2024-02-14T13:19:20;0.78;;;0.78;;
26484;SDS011;18083;50.560;7.262;2024-02-14T13:21:47;0.62;;;0.62;;
26484;SDS011;18083;50.560;7.262;2024-02-14T13:24:15;0.88;;;0.82;;
26484;SDS011;18083;50.560;7.262;2024-02-14T13:26:43;0.90;;;0.90;;
26484;SDS011;18083;50.560;7.262;2024-02-14T13:29:10;1.37;;;0.85;;
26484;SDS011;18083;50.560;7.262;2024-02-14T13:31:37;1.20;;;1.10;;
26484;SDS011;18083;50.560;7.262;2024-02-14T13:34:04;2.27;;;1.40;;
26484;SDS011;18083;50.560;7.262;2024-02-14T13:36:32;4.22;;;1.67;;
26484;SDS011;18083;50.560;7.262;2024-02-14T13:38:59;1.85;;;1.50;;
26484;SDS011;18083;50.560;7.262;2024-02-14T13:41:26;1.87;;;1.67;;
26484;SDS011;18083;50.560;7.262;2024-02-14T13:43:54;5.28;;;2.50;;
26484;SDS011;18083;50.560;7.262;2024-02-14T13:46:22;3.52;;;2.10;;
26484;SDS011;18083;50.560;7.262;2024-02-14T13:48:50;3.12;;;1.90;;
26484;SDS011;18083;50.560;7.262;2024-02-14T13:51:18;1.57;;;1.40;;
26484;SDS011;18083;50.560;7.262;2024-02-14T13:53:46;3.62;;;1.65;;
26484;SDS011;18083;50.560;7.262;2024-02-14T13:56:15;3.62;;;1.37;;
26484;SDS011;18083;50.560;7.262;2024-02-14T13:58:43;0.90;;;0.90;;
26484;SDS011;18083;50.560;7.262;2024-02-14T14:01:10;1.40;;;1.30;;
26484;SDS011;18083;50.560;7.262;2024-02-14T14:03:38;1.60;;;1.50;;
26484;SDS011;18083;50.560;7.262;2024-02-14T14:06:07;1.62;;;1.52;;
26484;SDS011;18083;50.560;7.262;2024-02-14T14:08:34;2.12;;;1.60;;
26484;SDS011;18083;50.560;7.262;2024-02-14T14:11:05;1.47;;;1.37;;
26484;SDS011;18083;50.560;7.262;2024-02-14T14:13:34;1.42;;;1.32;;
26484;SDS011;18083;50.560;7.262;2024-02-14T14:16:01;1.52;;;1.35;;
26484;SDS011;18083;50.560;7.262;2024-02-14T14:18:30;1.65;;;1.45;;
26484;SDS011;18083;50.560;7.262;2024-02-14T14:20:58;1.50;;;1.40;;
26484;SDS011;18083;50.560;7.262;2024-02-14T14:23:25;2.00;;;1.20;;
26484;SDS011;18083;50.560;7.262;2024-02-14T14:25:52;1.60;;;1.50;;
26484;SDS011;18083;50.560;7.262;2024-02-14T14:28:20;1.52;;;1.42;;
26484;SDS011;18083;50.560;7.262;2024-02-14T14:30:49;2.20;;;1.30;;
26484;SDS011;18083;50.560;7.262;2024-02-14T14:33:16;1.80;;;1.07;;
26484;SDS011;18083;50.560;7.262;2024-02-14T14:35:43;1.75;;;1.65;;
26484;SDS011;18083;50.560;7.262;2024-02-14T14:38:11;1.35;;;1.25;;
26484;SDS011;18083;50.560;7.262;2024-02-14T14:40:39;1.62;;;1.52;;
26484;SDS011;18083;50.560;7.262;2024-02-14T14:43:06;4.20;;;1.87;;
26484;SDS011;18083;50.560;7.262;2024-02-14T14:45:33;2.02;;;1.50;;
26484;SDS011;18083;50.560;7.262;2024-02-14T14:48:01;3.07;;;1.73;;
26484;SDS011;18083;50.560;7.262;2024-02-14T14:50:29;2.15;;;1.75;;
26484;SDS011;18083;50.560;7.262;2024-02-14T14:53:02;2.23;;;2.03;;
26484;SDS011;18083;50.560;7.262;2024-02-14T14:55:27;2.98;;;2.17;;
26484;SDS011;18083;50.560;7.262;2024-02-14T14:57:55;4.15;;;3.00;;
26484;SDS011;18083;50.560;7.262;2024-02-14T15:00:23;3.70;;;2.00;;